createdAt,value
2018-05-18T00:01:58.194Z,8.67
2018-05-18T00:04:33.426Z,8.80
2018-05-18T00:07:08.314Z,8.17
2018-05-18T00:09:43.530Z,7.53
2018-05-18T00:12:19.106Z,7.77
2018-05-18T00:14:54.110Z,8.60
2018-05-18T00:17:29.343Z,8.43
2018-05-18T00:20:03.774Z,9.00
2018-05-18T00:22:39.141Z,8.00
2018-05-18T00:25:14.355Z,8.57
2018-05-18T00:27:49.489Z,8.40
2018-05-18T00:30:26.264Z,8.37
2018-05-18T00:33:01.129Z,9.23
2018-05-18T00:35:35.694Z,8.70
2018-05-18T00:38:10.574Z,9.57
2018-05-18T00:40:45.525Z,8.40
2018-05-18T00:43:20.475Z,7.60
2018-05-18T00:45:55.174Z,8.50
2018-05-18T00:48:30.234Z,8.93
2018-05-18T00:51:05.170Z,7.97
2018-05-18T00:53:40.074Z,9.43
2018-05-18T00:56:16.517Z,8.55
2018-05-18T00:58:51.663Z,8.10
2018-05-18T01:01:26.592Z,7.80
2018-05-18T01:04:01.442Z,6.70
2018-05-18T01:06:36.211Z,7.43
2018-05-18T01:09:11.138Z,5.73
2018-05-18T01:11:46.202Z,5.60
2018-05-18T01:14:21.237Z,4.63
2018-05-18T01:16:55.895Z,5.07
2018-05-18T01:19:31.173Z,5.30
2018-05-18T01:22:06.190Z,5.30
2018-05-18T01:24:40.622Z,5.17
2018-05-18T01:27:16.585Z,4.90
2018-05-18T01:29:51.251Z,5.23
2018-05-18T01:32:26.524Z,5.37
2018-05-18T01:35:01.419Z,4.87
2018-05-18T01:37:36.421Z,5.40
2018-05-18T01:40:11.741Z,5.07
2018-05-18T01:42:46.755Z,4.80
2018-05-18T01:45:21.693Z,4.90
2018-05-18T01:47:56.730Z,4.93
2018-05-18T01:50:31.854Z,4.90
2018-05-18T01:53:06.914Z,5.90
2018-05-18T01:55:42.346Z,4.12
2018-05-18T01:58:16.877Z,5.23
2018-05-18T02:00:52.261Z,5.40
2018-05-18T02:03:27.381Z,4.05
2018-05-18T02:06:02.310Z,5.33
2018-05-18T02:08:37.639Z,5.30
2018-05-18T02:11:12.630Z,5.23
2018-05-18T02:13:47.479Z,4.93
2018-05-18T02:16:23.321Z,4.78
2018-05-18T02:18:59.273Z,5.18
2018-05-18T02:21:34.349Z,4.70
2018-05-18T02:24:08.429Z,4.90
2018-05-18T02:26:43.488Z,5.33
2018-05-18T02:29:18.638Z,6.70
2018-05-18T02:31:53.680Z,7.60
2018-05-18T02:34:28.926Z,7.30
2018-05-18T02:37:03.866Z,9.10
2018-05-18T02:39:39.175Z,7.47
2018-05-18T02:42:14.367Z,7.53
2018-05-18T02:44:49.565Z,7.47
2018-05-18T02:47:24.646Z,6.87
2018-05-18T02:49:59.527Z,7.23
2018-05-18T02:52:34.419Z,7.32
2018-05-18T02:55:09.420Z,7.35
2018-05-18T02:57:44.410Z,6.20
2018-05-18T03:00:19.339Z,5.90
2018-05-18T03:02:54.479Z,6.60
2018-05-18T03:05:29.698Z,6.50
2018-05-18T03:08:04.679Z,5.97
2018-05-18T03:10:39.650Z,8.77
2018-05-18T03:13:24.042Z,6.73
2018-05-18T03:15:58.545Z,5.50
2018-05-18T03:18:33.551Z,6.30
2018-05-18T03:21:08.614Z,5.80
2018-05-18T03:23:43.434Z,6.73
2018-05-18T03:26:18.201Z,5.60
2018-05-18T03:28:52.650Z,6.97
2018-05-18T03:31:28.085Z,5.77
2018-05-18T03:34:03.687Z,5.10
2018-05-18T03:36:38.529Z,5.20
2018-05-18T03:39:13.694Z,6.53
2018-05-18T03:41:48.194Z,6.50
2018-05-18T03:44:23.446Z,6.15
2018-05-18T03:46:58.485Z,5.97
2018-05-18T03:49:33.458Z,5.47
2018-05-18T03:52:08.051Z,6.90
2018-05-18T03:54:42.994Z,5.10
2018-05-18T03:57:18.018Z,6.77
2018-05-18T03:59:52.490Z,6.30
2018-05-18T04:02:38.155Z,6.13
2018-05-18T04:05:24.118Z,4.83
2018-05-18T04:08:09.678Z,5.90
2018-05-18T04:10:44.578Z,6.10
2018-05-18T04:13:19.489Z,5.90
2018-05-18T04:15:54.126Z,4.87
2018-05-18T04:18:29.127Z,5.60
2018-05-18T04:21:03.738Z,4.87
2018-05-18T04:23:38.440Z,5.00
2018-05-18T04:26:13.554Z,4.72
2018-05-18T04:28:48.025Z,5.67
2018-05-18T04:31:22.846Z,3.97
2018-05-18T04:33:57.581Z,4.57
2018-05-18T04:36:32.958Z,4.57
2018-05-18T04:39:08.151Z,3.80
2018-05-18T04:41:43.046Z,4.07
2018-05-18T04:44:17.986Z,5.40
2018-05-18T04:46:52.659Z,4.10
2018-05-18T04:49:27.765Z,4.95
2018-05-18T04:52:02.706Z,4.23
2018-05-18T04:54:37.607Z,4.50
2018-05-18T04:57:12.211Z,4.30
2018-05-18T04:59:47.239Z,4.03
2018-05-18T05:02:21.976Z,4.83
2018-05-18T05:04:56.946Z,4.80
2018-05-18T05:07:31.641Z,5.70
2018-05-18T05:10:06.730Z,4.50
2018-05-18T05:12:41.277Z,6.43
2018-05-18T05:15:17.082Z,6.03
2018-05-18T05:17:52.201Z,6.20
2018-05-18T05:20:27.049Z,5.75
2018-05-18T05:23:02.076Z,5.47
2018-05-18T05:25:37.084Z,4.93
2018-05-18T05:28:11.710Z,3.93
2018-05-18T05:30:46.809Z,5.20
2018-05-18T05:33:21.753Z,4.70
2018-05-18T05:35:56.338Z,4.50
2018-05-18T05:38:31.358Z,5.13
2018-05-18T05:41:05.911Z,3.97
2018-05-18T05:43:40.846Z,5.40
2018-05-18T05:46:15.665Z,5.60
2018-05-18T05:48:50.188Z,5.13
2018-05-18T05:51:25.084Z,4.80
2018-05-18T05:54:00.015Z,4.10
2018-05-18T05:56:34.841Z,4.17
2018-05-18T05:59:09.986Z,5.77
2018-05-18T06:01:44.885Z,4.33
2018-05-18T06:04:20.078Z,4.00
2018-05-18T06:06:54.877Z,4.90
2018-05-18T06:09:30.037Z,5.35
2018-05-18T06:12:04.550Z,4.47
2018-05-18T06:14:39.720Z,3.95
2018-05-18T06:17:14.365Z,4.77
2018-05-18T06:19:49.253Z,4.97
2018-05-18T06:22:24.312Z,5.60
2018-05-18T06:24:59.366Z,5.57
2018-05-18T06:27:34.367Z,5.40
2018-05-18T06:30:09.833Z,5.10
2018-05-18T06:32:44.750Z,5.00
2018-05-18T06:35:19.389Z,5.17
2018-05-18T06:37:54.161Z,4.83
2018-05-18T06:40:29.145Z,4.37
2018-05-18T06:43:03.769Z,7.07
2018-05-18T06:45:38.938Z,4.80
2018-05-18T06:48:13.921Z,5.00
2018-05-18T06:50:49.043Z,4.50
2018-05-18T06:53:23.443Z,5.15
2018-05-18T06:55:58.376Z,5.00
2018-05-18T06:58:33.414Z,4.63
2018-05-18T07:01:08.446Z,4.10
2018-05-18T07:03:43.948Z,4.25
2018-05-18T07:06:19.212Z,5.55
2018-05-18T07:08:53.970Z,5.10
2018-05-18T07:11:29.255Z,4.65
2018-05-18T07:14:04.117Z,4.90
2018-05-18T07:16:39.132Z,5.33
2018-05-18T07:19:14.114Z,4.70
2018-05-18T07:21:49.022Z,4.90
2018-05-18T07:24:24.255Z,5.47
2018-05-18T07:26:59.299Z,4.87
2018-05-18T07:29:35.190Z,6.07
2018-05-18T07:32:10.539Z,5.53
2018-05-18T07:34:45.154Z,5.20
2018-05-18T07:37:20.446Z,5.67
2018-05-18T07:39:55.226Z,5.83
2018-05-18T07:42:30.394Z,5.80
2018-05-18T07:45:04.847Z,5.30
2018-05-18T07:47:40.130Z,4.80
2018-05-18T07:50:15.298Z,6.47
2018-05-18T07:52:50.703Z,5.33
2018-05-18T07:55:25.434Z,5.80
2018-05-18T07:58:00.460Z,5.77
2018-05-18T08:00:35.491Z,5.47
2018-05-18T08:03:10.322Z,6.03
2018-05-18T08:05:45.394Z,4.83
2018-05-18T08:08:20.737Z,5.83
2018-05-18T08:10:55.250Z,5.53
2018-05-18T08:13:30.362Z,5.33
2018-05-18T08:16:05.062Z,5.40
2018-05-18T08:18:40.239Z,4.80
2018-05-18T08:21:15.317Z,5.27
2018-05-18T08:23:50.494Z,3.70
2018-05-18T08:26:25.397Z,4.37
2018-05-18T08:29:11.596Z,7.50
2018-05-18T08:31:46.255Z,5.50
2018-05-18T08:34:21.210Z,6.07
2018-05-18T08:36:56.341Z,6.43
2018-05-18T08:39:31.482Z,5.83
2018-05-18T08:42:06.026Z,4.90
2018-05-18T08:44:40.602Z,6.90
2018-05-18T08:47:16.090Z,6.25
2018-05-18T08:49:51.268Z,6.07
2018-05-18T08:52:26.714Z,6.43
2018-05-18T08:55:01.408Z,6.07
2018-05-18T08:57:36.375Z,5.93
2018-05-18T09:00:11.626Z,6.93
2018-05-18T09:02:46.523Z,4.97
2018-05-18T09:05:21.622Z,5.87
2018-05-18T09:07:56.327Z,6.23
2018-05-18T09:10:31.523Z,5.50
2018-05-18T09:13:06.292Z,7.00
2018-05-18T09:15:41.267Z,5.57
2018-05-18T09:18:17.631Z,6.15
2018-05-18T09:20:52.426Z,5.10
2018-05-18T09:23:27.423Z,4.57
2018-05-18T09:26:02.746Z,5.27
2018-05-18T09:28:37.913Z,5.43
2018-05-18T09:31:13.228Z,5.55
2018-05-18T09:33:48.781Z,5.97
2018-05-18T09:36:23.680Z,5.57
2018-05-18T09:38:58.801Z,5.33
2018-05-18T09:41:33.708Z,7.27
2018-05-18T09:44:08.549Z,4.80
2018-05-18T09:46:43.107Z,6.00
2018-05-18T09:49:18.370Z,5.85
2018-05-18T09:51:53.266Z,5.85
2018-05-18T09:54:28.014Z,5.35
2018-05-18T09:57:02.541Z,5.17
2018-05-18T09:59:37.489Z,5.53
2018-05-18T10:02:12.490Z,5.60
2018-05-18T10:04:47.451Z,4.70
2018-05-18T10:07:22.585Z,5.12
2018-05-18T10:09:57.466Z,4.67
2018-05-18T10:12:32.767Z,5.28
2018-05-18T10:15:07.183Z,5.43
2018-05-18T10:17:42.040Z,7.57
2018-05-18T10:20:17.530Z,5.82
2018-05-18T10:22:52.426Z,6.53
2018-05-18T10:25:26.934Z,6.10
2018-05-18T10:28:02.507Z,5.33
2018-05-18T10:30:37.013Z,6.00
2018-05-18T10:33:11.842Z,6.07
2018-05-18T10:35:46.937Z,5.43
2018-05-18T10:38:21.792Z,4.50
2018-05-18T10:40:56.616Z,6.13
2018-05-18T10:43:31.648Z,6.30
2018-05-18T10:46:06.203Z,5.77
2018-05-18T10:48:41.603Z,5.80
2018-05-18T10:51:17.071Z,5.40
2018-05-18T10:53:52.018Z,5.83
2018-05-18T10:56:27.591Z,6.17
2018-05-18T10:59:02.426Z,5.57
2018-05-18T11:01:37.587Z,5.10
2018-05-18T11:04:12.575Z,5.93
2018-05-18T11:06:47.667Z,5.43
2018-05-18T11:09:23.098Z,7.00
2018-05-18T11:11:58.109Z,6.37
2018-05-18T11:14:33.607Z,6.15
2018-05-18T11:17:08.671Z,7.20
2018-05-18T11:19:43.794Z,6.93
2018-05-18T11:22:18.610Z,5.97
2018-05-18T11:24:53.861Z,6.30
2018-05-18T11:27:29.194Z,6.27
2018-05-18T11:30:03.769Z,7.10
2018-05-18T11:32:39.106Z,7.10
2018-05-18T11:35:14.214Z,7.60
2018-05-18T11:37:49.264Z,5.70
2018-05-18T11:40:24.202Z,6.50
2018-05-18T11:42:59.653Z,6.17
2018-05-18T11:45:34.264Z,5.20
2018-05-18T11:48:08.836Z,6.30
2018-05-18T11:50:43.714Z,5.90
2018-05-18T11:53:18.745Z,5.90
2018-05-18T11:55:53.681Z,6.70
2018-05-18T11:58:28.802Z,6.60
2018-05-18T12:01:03.874Z,5.70
2018-05-18T12:03:38.793Z,5.80
2018-05-18T12:06:13.863Z,6.03
2018-05-18T12:08:48.682Z,5.70
2018-05-18T12:11:23.193Z,6.60
2018-05-18T12:13:58.167Z,5.93
2018-05-18T12:16:33.330Z,5.03
2018-05-18T12:19:08.130Z,7.60
2018-05-18T12:21:43.633Z,6.32
2018-05-18T12:24:19.070Z,5.87
2018-05-18T12:26:54.749Z,5.80
2018-05-18T12:29:30.035Z,5.75
2018-05-18T12:32:04.670Z,5.53
2018-05-18T12:34:39.841Z,5.40
2018-05-18T12:37:14.778Z,5.40
2018-05-18T12:39:49.825Z,6.80
2018-05-18T12:42:24.829Z,5.22
2018-05-18T12:44:59.942Z,5.97
2018-05-18T12:47:35.069Z,7.07
2018-05-18T12:50:09.986Z,6.57
2018-05-18T12:52:45.195Z,5.50
2018-05-18T12:55:20.215Z,5.30
2018-05-18T12:57:55.030Z,5.97
2018-05-18T13:00:30.397Z,5.33
2018-05-18T13:03:05.974Z,8.20
2018-05-18T13:05:40.577Z,6.60
2018-05-18T13:08:16.106Z,5.40
2018-05-18T13:10:50.954Z,6.17
2018-05-18T13:13:26.334Z,6.30
2018-05-18T13:16:01.427Z,5.50
2018-05-18T13:18:36.330Z,5.30
2018-05-18T13:21:11.530Z,5.80
2018-05-18T13:23:46.878Z,6.53
2018-05-18T13:26:21.893Z,6.20
2018-05-18T13:28:57.319Z,5.40
2018-05-18T13:31:32.578Z,6.30
2018-05-18T13:34:08.012Z,6.17
2018-05-18T13:36:42.982Z,6.77
2018-05-18T13:39:18.290Z,5.50
2018-05-18T13:41:52.902Z,5.73
2018-05-18T13:44:28.187Z,4.97
2018-05-18T13:47:03.138Z,5.30
2018-05-18T13:49:37.742Z,6.00
2018-05-18T13:52:12.386Z,5.00
2018-05-18T13:54:47.047Z,6.20
2018-05-18T13:57:22.265Z,5.23
2018-05-18T13:59:57.258Z,5.00
2018-05-18T14:02:32.479Z,5.07
2018-05-18T14:05:07.174Z,5.50
2018-05-18T14:07:42.167Z,5.30
2018-05-18T14:10:18.442Z,4.85
2018-05-18T14:12:53.537Z,5.87
2018-05-18T14:15:28.491Z,4.60
2018-05-18T14:18:03.522Z,6.23
2018-05-18T14:20:38.950Z,6.15
2018-05-18T14:23:13.601Z,5.27
2018-05-18T14:25:49.115Z,5.87
2018-05-18T14:28:24.395Z,5.40
2018-05-18T14:30:59.423Z,6.87
2018-05-18T14:33:35.006Z,6.80
2018-05-18T14:36:10.187Z,5.80
2018-05-18T14:38:45.549Z,5.33
2018-05-18T14:41:20.534Z,5.87
2018-05-18T14:43:55.660Z,5.73
2018-05-18T14:46:31.079Z,5.87
2018-05-18T14:49:05.841Z,5.83
2018-05-18T14:51:40.420Z,5.60
2018-05-18T14:54:15.218Z,6.03
2018-05-18T14:56:50.841Z,5.97
2018-05-18T14:59:26.406Z,5.90
2018-05-18T15:02:01.166Z,6.80
2018-05-18T15:04:36.030Z,5.27
2018-05-18T15:07:11.313Z,5.33
2018-05-18T15:09:46.350Z,5.43
2018-05-18T15:12:21.547Z,5.67
2018-05-18T15:14:56.381Z,5.70
2018-05-18T15:17:31.450Z,4.60
2018-05-18T15:20:05.879Z,6.07
2018-05-18T15:22:41.194Z,5.30
2018-05-18T15:25:16.368Z,5.57
2018-05-18T15:27:51.349Z,5.67
2018-05-18T15:30:26.622Z,6.27
2018-05-18T15:33:01.371Z,5.07
2018-05-18T15:35:36.363Z,5.60
2018-05-18T15:38:11.255Z,6.12
2018-05-18T15:40:46.339Z,5.40
2018-05-18T15:43:21.067Z,6.77
2018-05-18T15:45:56.297Z,6.45
2018-05-18T15:48:31.563Z,6.37
2018-05-18T15:51:06.110Z,6.10
2018-05-18T15:53:40.686Z,5.53
2018-05-18T15:56:15.306Z,5.17
2018-05-18T15:58:50.383Z,5.90
2018-05-18T16:01:25.746Z,5.70
2018-05-18T16:04:00.523Z,6.97
2018-05-18T16:06:35.422Z,5.57
2018-05-18T16:09:10.410Z,5.60
2018-05-18T16:11:45.206Z,5.35
2018-05-18T16:14:19.940Z,5.70
2018-05-18T16:16:55.343Z,6.47
2018-05-18T16:19:29.898Z,6.12
2018-05-18T16:22:04.735Z,6.23
2018-05-18T16:24:39.451Z,6.57
2018-05-18T16:27:14.476Z,6.25
2018-05-18T16:29:49.159Z,6.77
2018-05-18T16:32:24.835Z,6.97
2018-05-18T16:34:59.743Z,6.17
2018-05-18T16:37:35.257Z,6.67
2018-05-18T16:40:10.843Z,7.77
2018-05-18T16:42:45.804Z,7.00
2018-05-18T16:45:20.915Z,6.80
2018-05-18T16:47:55.862Z,6.43
2018-05-18T16:50:30.926Z,5.93
2018-05-18T16:53:05.654Z,6.47
2018-05-18T16:55:40.105Z,6.07
2018-05-18T16:58:14.954Z,6.93
2018-05-18T17:00:49.855Z,6.53
2018-05-18T17:03:25.051Z,6.83
2018-05-18T17:06:00.014Z,8.37
2018-05-18T17:08:35.958Z,6.32
2018-05-18T17:11:10.705Z,7.00
2018-05-18T17:13:45.765Z,6.23
2018-05-18T17:16:21.346Z,7.03
2018-05-18T17:18:56.540Z,6.40
2018-05-18T17:21:31.981Z,6.18
2018-05-18T17:24:06.391Z,7.30
2018-05-18T17:26:40.825Z,6.90
2018-05-18T17:29:16.074Z,7.03
2018-05-18T17:31:51.049Z,7.13
2018-05-18T17:34:26.550Z,6.77
2018-05-18T17:37:01.403Z,7.60
2018-05-18T17:39:36.934Z,6.15
2018-05-18T17:42:11.971Z,6.40
2018-05-18T17:44:46.737Z,6.43
2018-05-18T17:47:21.930Z,5.30
2018-05-18T17:49:57.404Z,6.00
2018-05-18T17:52:33.059Z,6.47
2018-05-18T17:55:07.607Z,6.87
2018-05-18T17:57:42.918Z,5.23
2018-05-18T18:00:18.859Z,8.43
2018-05-18T18:02:53.979Z,6.50
2018-05-18T18:05:28.738Z,7.20
2018-05-18T18:08:03.902Z,6.40
2018-05-18T18:10:39.235Z,6.33
2018-05-18T18:13:14.550Z,7.00
2018-05-18T18:15:49.390Z,6.33
2018-05-18T18:18:24.418Z,5.80
2018-05-18T18:20:59.450Z,6.10
2018-05-18T18:23:34.802Z,5.97
2018-05-18T18:26:09.851Z,5.80
2018-05-18T18:28:44.297Z,6.57
2018-05-18T18:31:20.935Z,6.33
2018-05-18T18:33:55.551Z,6.40
2018-05-18T18:36:30.799Z,6.87
2018-05-18T18:39:06.484Z,5.73
2018-05-18T18:41:41.530Z,6.67
2018-05-18T18:44:17.139Z,6.40
2018-05-18T18:46:51.976Z,6.33
2018-05-18T18:49:26.898Z,5.63
2018-05-18T18:52:01.754Z,7.03
2018-05-18T18:54:36.419Z,7.13
2018-05-18T18:57:11.390Z,6.90
2018-05-18T18:59:46.980Z,6.80
2018-05-18T19:02:22.038Z,6.80
2018-05-18T19:04:57.022Z,6.53
2018-05-18T19:07:32.181Z,6.57
2018-05-18T19:10:07.175Z,6.43
2018-05-18T19:12:42.426Z,6.83
2018-05-18T19:15:17.122Z,6.57
2018-05-18T19:17:52.491Z,6.80
2018-05-18T19:20:28.042Z,7.25
2018-05-18T19:23:03.042Z,7.10
2018-05-18T19:25:38.262Z,5.83
2018-05-18T19:28:13.202Z,7.80
2018-05-18T19:30:48.360Z,6.03
2018-05-18T19:33:23.461Z,6.78
2018-05-18T19:36:00.309Z,8.00
2018-05-18T19:38:35.214Z,7.30
2018-05-18T19:41:10.178Z,7.07
2018-05-18T19:43:45.402Z,6.93
2018-05-18T19:46:20.210Z,7.07
2018-05-18T19:48:55.327Z,7.90
2018-05-18T19:51:30.647Z,7.37
2018-05-18T19:54:05.340Z,7.50
2018-05-18T19:56:40.705Z,8.63
2018-05-18T19:59:16.110Z,7.40
2018-05-18T20:01:51.106Z,7.17
2018-05-18T20:04:26.394Z,7.50
2018-05-18T20:07:00.938Z,7.33
2018-05-18T20:09:36.254Z,7.87
2018-05-18T20:12:11.263Z,7.97
2018-05-18T20:14:46.271Z,8.10
2018-05-18T20:17:21.255Z,8.50
2018-05-18T20:19:56.150Z,7.47
2018-05-18T20:22:31.443Z,7.40
2018-05-18T20:25:06.564Z,8.30
2018-05-18T20:27:41.753Z,8.57
2018-05-18T20:30:17.171Z,8.55
2018-05-18T20:32:52.095Z,7.72
2018-05-18T20:35:27.525Z,8.80
2018-05-18T20:38:04.202Z,8.33
2018-05-18T20:40:39.703Z,8.07
2018-05-18T20:43:15.294Z,10.33
2018-05-18T20:45:50.003Z,8.67
2018-05-18T20:48:26.226Z,7.78
2018-05-18T20:51:01.754Z,7.67
2018-05-18T20:53:37.750Z,8.80
2018-05-18T20:56:13.480Z,8.30
2018-05-18T20:58:49.766Z,8.00
2018-05-18T21:01:24.847Z,8.23
2018-05-18T21:03:59.932Z,9.00
2018-05-18T21:06:35.508Z,8.55
2018-05-18T21:09:14.270Z,8.10
2018-05-18T21:11:50.089Z,7.80
2018-05-18T21:14:26.142Z,9.27
2018-05-18T21:17:02.544Z,8.67
2018-05-18T21:19:37.910Z,8.75
2018-05-18T21:22:14.568Z,8.90
2018-05-18T21:24:49.594Z,8.63
2018-05-18T21:27:24.565Z,8.77
2018-05-18T21:29:59.366Z,8.83
2018-05-18T21:32:35.618Z,8.70
2018-05-18T21:35:10.514Z,8.70
2018-05-18T21:37:45.401Z,8.03
2018-05-18T21:40:21.002Z,9.17
2018-05-18T21:42:55.694Z,8.47
2018-05-18T21:45:30.937Z,9.20
2018-05-18T21:48:05.583Z,10.00
2018-05-18T21:50:40.902Z,9.00
2018-05-18T21:53:15.942Z,8.60
2018-05-18T21:55:51.362Z,8.40
2018-05-18T21:58:26.710Z,9.90
2018-05-18T22:01:01.758Z,9.07
2018-05-18T22:03:37.558Z,8.23
2018-05-18T22:06:12.562Z,8.80
2018-05-18T22:08:47.618Z,8.80
2018-05-18T22:11:22.500Z,9.80
2018-05-18T22:13:57.762Z,8.73
2018-05-18T22:16:33.395Z,8.30
2018-05-18T22:19:08.358Z,9.07
2018-05-18T22:21:43.591Z,9.57
2018-05-18T22:24:19.854Z,8.66
2018-05-18T22:26:54.668Z,9.70
2018-05-18T22:29:29.978Z,9.52
2018-05-18T22:32:04.756Z,9.53
2018-05-18T22:34:39.590Z,9.70
2018-05-18T22:37:14.939Z,9.63
2018-05-18T22:39:49.925Z,9.70
2018-05-18T22:42:25.059Z,10.33
2018-05-18T22:44:59.821Z,8.63
2018-05-18T22:47:34.939Z,9.17
2018-05-18T22:50:10.546Z,9.23
2018-05-18T22:52:45.570Z,8.45
2018-05-18T22:55:20.958Z,9.30
2018-05-18T22:57:56.579Z,9.60
2018-05-18T23:00:31.974Z,9.33
2018-05-18T23:03:06.718Z,9.33
2018-05-18T23:05:41.702Z,9.70
2018-05-18T23:08:16.562Z,9.60
2018-05-18T23:10:51.127Z,9.17
2018-05-18T23:13:26.414Z,9.05
2018-05-18T23:16:01.590Z,9.50
2018-05-18T23:18:36.882Z,9.65
2018-05-18T23:21:12.270Z,8.53
2018-05-18T23:23:47.326Z,9.33
2018-05-18T23:26:22.662Z,8.90
2018-05-18T23:28:57.679Z,9.80
2018-05-18T23:31:32.881Z,9.55
2018-05-18T23:34:07.259Z,9.60
2018-05-18T23:36:42.502Z,10.27
2018-05-18T23:39:17.223Z,10.40
2018-05-18T23:41:52.269Z,10.13
2018-05-18T23:44:27.206Z,11.10
2018-05-18T23:47:01.663Z,10.00
2018-05-18T23:49:36.783Z,9.77
2018-05-18T23:52:11.761Z,10.10
2018-05-18T23:54:47.979Z,11.03
2018-05-18T23:57:23.089Z,11.40
2018-05-18T23:59:57.874Z,11.60
